sensor_id;sensor_type;location;lat;lon;timestamp;P1;durP1;ratioP1;P2;durP2;ratioP2
27303;SDS011;14791;52.392;13.092;2024-03-08T00:00:14;11.63;;;10.37;;
27303;SDS011;14791;52.392;13.092;2024-03-08T00:02:45;10.77;;;9.67;;
27303;SDS011;14791;52.392;13.092;2024-03-08T00:05:16;10.60;;;9.30;;
27303;SDS011;14791;52.392;13.092;2024-03-08T00:07:45;12.50;;;9.73;;
27303;SDS011;14791;52.392;13.092;2024-03-08T00:10:15;11.70;;;9.37;;
27303;SDS011;14791;52.392;13.092;2024-03-08T00:12:44;10.10;;;9.00;;
27303;SDS011;14791;52.392;13.092;2024-03-08T00:15:14;10.63;;;9.53;;
27303;SDS011;14791;52.392;13.092;2024-03-08T00:17:44;11.37;;;9.03;;
27303;SDS011;14791;52.392;13.092;2024-03-08T00:20:14;10.23;;;9.17;;
27303;SDS011;14791;52.392;13.092;2024-03-08T00:22:45;10.10;;;9.27;;
27303;SDS011;14791;52.392;13.092;2024-03-08T00:25:15;9.60;;;8.70;;
27303;SDS011;14791;52.392;13.092;2024-03-08T00:27:44;9.73;;;8.80;;
27303;SDS011;14791;52.392;13.092;2024-03-08T00:30:12;9.87;;;9.17;;
27303;SDS011;14791;52.392;13.092;2024-03-08T00:32:42;9.93;;;8.97;;
27303;SDS011;14791;52.392;13.092;2024-03-08T00:35:11;10.30;;;8.93;;
27303;SDS011;14791;52.392;13.092;2024-03-08T00:37:40;10.03;;;9.03;;
27303;SDS011;14791;52.392;13.092;2024-03-08T00:40:10;10.37;;;8.97;;
27303;SDS011;14791;52.392;13.092;2024-03-08T00:42:39;8.73;;;7.90;;
27303;SDS011;14791;52.392;13.092;2024-03-08T00:45:10;9.97;;;9.13;;
27303;SDS011;14791;52.392;13.092;2024-03-08T00:47:39;9.53;;;8.63;;
27303;SDS011;14791;52.392;13.092;2024-03-08T00:50:10;10.37;;;9.47;;
27303;SDS011;14791;52.392;13.092;2024-03-08T00:53:00;9.93;;;9.03;;
27303;SDS011;14791;52.392;13.092;2024-03-08T00:55:30;10.23;;;9.33;;
27303;SDS011;14791;52.392;13.092;2024-03-08T00:57:59;9.87;;;8.87;;
27303;SDS011;14791;52.392;13.092;2024-03-08T01:00:28;9.10;;;8.30;;
27303;SDS011;14791;52.392;13.092;2024-03-08T01:02:57;10.13;;;9.23;;
27303;SDS011;14791;52.392;13.092;2024-03-08T01:05:27;9.57;;;8.47;;
27303;SDS011;14791;52.392;13.092;2024-03-08T01:07:55;10.30;;;9.30;;
27303;SDS011;14791;52.392;13.092;2024-03-08T01:10:24;9.30;;;8.50;;
27303;SDS011;14791;52.392;13.092;2024-03-08T01:12:54;10.37;;;9.20;;
27303;SDS011;14791;52.392;13.092;2024-03-08T01:15:23;11.07;;;9.67;;
27303;SDS011;14791;52.392;13.092;2024-03-08T01:17:52;10.87;;;9.90;;
27303;SDS011;14791;52.392;13.092;2024-03-08T01:20:21;11.27;;;9.97;;
27303;SDS011;14791;52.392;13.092;2024-03-08T01:22:50;10.47;;;9.47;;
27303;SDS011;14791;52.392;13.092;2024-03-08T01:25:19;9.60;;;8.70;;
27303;SDS011;14791;52.392;13.092;2024-03-08T01:27:48;10.10;;;9.20;;
27303;SDS011;14791;52.392;13.092;2024-03-08T01:30:17;9.43;;;8.53;;
27303;SDS011;14791;52.392;13.092;2024-03-08T01:32:46;10.63;;;9.53;;
27303;SDS011;14791;52.392;13.092;2024-03-08T01:35:14;13.10;;;9.53;;
27303;SDS011;14791;52.392;13.092;2024-03-08T01:37:44;10.03;;;9.13;;
27303;SDS011;14791;52.392;13.092;2024-03-08T01:40:13;9.43;;;8.57;;
27303;SDS011;14791;52.392;13.092;2024-03-08T01:42:43;9.77;;;8.77;;
27303;SDS011;14791;52.392;13.092;2024-03-08T01:45:13;10.27;;;9.40;;
27303;SDS011;14791;52.392;13.092;2024-03-08T01:47:43;12.50;;;10.23;;
27303;SDS011;14791;52.392;13.092;2024-03-08T01:50:14;11.53;;;10.00;;
27303;SDS011;14791;52.392;13.092;2024-03-08T01:52:43;10.80;;;9.57;;
27303;SDS011;14791;52.392;13.092;2024-03-08T01:55:12;10.60;;;9.57;;
27303;SDS011;14791;52.392;13.092;2024-03-08T01:57:42;11.13;;;9.20;;
27303;SDS011;14791;52.392;13.092;2024-03-08T02:00:12;9.97;;;9.00;;
27303;SDS011;14791;52.392;13.092;2024-03-08T02:02:41;10.37;;;8.40;;
27303;SDS011;14791;52.392;13.092;2024-03-08T02:05:11;9.80;;;8.83;;
27303;SDS011;14791;52.392;13.092;2024-03-08T02:07:43;10.73;;;9.47;;
27303;SDS011;14791;52.392;13.092;2024-03-08T02:10:13;10.27;;;9.37;;
27303;SDS011;14791;52.392;13.092;2024-03-08T02:12:42;8.87;;;8.00;;
27303;SDS011;14791;52.392;13.092;2024-03-08T02:15:11;10.53;;;9.53;;
27303;SDS011;14791;52.392;13.092;2024-03-08T02:17:40;9.83;;;8.83;;
27303;SDS011;14791;52.392;13.092;2024-03-08T02:20:09;9.60;;;8.70;;
27303;SDS011;14791;52.392;13.092;2024-03-08T02:22:40;9.83;;;9.00;;
27303;SDS011;14791;52.392;13.092;2024-03-08T02:25:09;9.70;;;8.70;;
27303;SDS011;14791;52.392;13.092;2024-03-08T02:27:38;9.77;;;8.87;;
27303;SDS011;14791;52.392;13.092;2024-03-08T02:30:07;9.23;;;8.43;;
27303;SDS011;14791;52.392;13.092;2024-03-08T02:32:39;10.10;;;8.90;;
27303;SDS011;14791;52.392;13.092;2024-03-08T02:35:08;11.47;;;9.17;;
27303;SDS011;14791;52.392;13.092;2024-03-08T02:37:37;10.90;;;9.80;;
27303;SDS011;14791;52.392;13.092;2024-03-08T02:40:06;10.17;;;9.27;;
27303;SDS011;14791;52.392;13.092;2024-03-08T02:42:35;10.60;;;9.70;;
27303;SDS011;14791;52.392;13.092;2024-03-08T02:45:04;10.97;;;9.87;;
27303;SDS011;14791;52.392;13.092;2024-03-08T02:47:35;11.50;;;9.00;;
27303;SDS011;14791;52.392;13.092;2024-03-08T02:50:05;10.93;;;9.83;;
27303;SDS011;14791;52.392;13.092;2024-03-08T02:52:36;11.93;;;9.37;;
27303;SDS011;14791;52.392;13.092;2024-03-08T02:55:05;10.83;;;9.30;;
27303;SDS011;14791;52.392;13.092;2024-03-08T02:57:36;10.47;;;9.43;;
27303;SDS011;14791;52.392;13.092;2024-03-08T03:00:05;10.13;;;9.20;;
27303;SDS011;14791;52.392;13.092;2024-03-08T03:02:36;10.40;;;9.40;;
27303;SDS011;14791;52.392;13.092;2024-03-08T03:05:05;11.77;;;8.93;;
27303;SDS011;14791;52.392;13.092;2024-03-08T03:07:36;10.50;;;9.40;;
27303;SDS011;14791;52.392;13.092;2024-03-08T03:10:06;12.03;;;10.43;;
27303;SDS011;14791;52.392;13.092;2024-03-08T03:12:35;9.83;;;8.93;;
27303;SDS011;14791;52.392;13.092;2024-03-08T03:15:05;14.13;;;10.20;;
27303;SDS011;14791;52.392;13.092;2024-03-08T03:17:34;11.67;;;9.00;;
27303;SDS011;14791;52.392;13.092;2024-03-08T03:20:08;13.40;;;8.97;;
27303;SDS011;14791;52.392;13.092;2024-03-08T03:22:36;10.70;;;9.13;;
27303;SDS011;14791;52.392;13.092;2024-03-08T03:25:06;10.03;;;9.03;;
27303;SDS011;14791;52.392;13.092;2024-03-08T03:27:37;9.33;;;8.40;;
27303;SDS011;14791;52.392;13.092;2024-03-08T03:30:07;10.87;;;8.80;;
27303;SDS011;14791;52.392;13.092;2024-03-08T03:32:48;10.47;;;9.37;;
27303;SDS011;14791;52.392;13.092;2024-03-08T03:35:18;12.93;;;8.90;;
27303;SDS011;14791;52.392;13.092;2024-03-08T03:37:49;10.37;;;9.50;;
27303;SDS011;14791;52.392;13.092;2024-03-08T03:40:33;10.33;;;9.30;;
27303;SDS011;14791;52.392;13.092;2024-03-08T03:43:03;11.47;;;10.37;;
27303;SDS011;14791;52.392;13.092;2024-03-08T03:45:32;11.13;;;10.13;;
27303;SDS011;14791;52.392;13.092;2024-03-08T03:48:04;13.93;;;10.37;;
27303;SDS011;14791;52.392;13.092;2024-03-08T03:50:36;11.83;;;9.27;;
27303;SDS011;14791;52.392;13.092;2024-03-08T03:53:05;11.53;;;9.33;;
27303;SDS011;14791;52.392;13.092;2024-03-08T03:55:35;10.80;;;9.70;;
27303;SDS011;14791;52.392;13.092;2024-03-08T03:58:05;10.70;;;9.77;;
27303;SDS011;14791;52.392;13.092;2024-03-08T04:00:34;10.70;;;9.73;;
27303;SDS011;14791;52.392;13.092;2024-03-08T04:03:03;10.33;;;9.43;;
27303;SDS011;14791;52.392;13.092;2024-03-08T04:05:32;10.07;;;9.13;;
27303;SDS011;14791;52.392;13.092;2024-03-08T04:08:01;12.50;;;9.90;;
27303;SDS011;14791;52.392;13.092;2024-03-08T04:10:30;11.70;;;9.87;;
27303;SDS011;14791;52.392;13.092;2024-03-08T04:12:59;14.53;;;10.17;;
27303;SDS011;14791;52.392;13.092;2024-03-08T04:15:28;13.97;;;10.57;;
27303;SDS011;14791;52.392;13.092;2024-03-08T04:17:57;12.57;;;11.20;;
27303;SDS011;14791;52.392;13.092;2024-03-08T04:20:27;12.73;;;10.13;;
27303;SDS011;14791;52.392;13.092;2024-03-08T04:22:57;12.83;;;9.90;;
27303;SDS011;14791;52.392;13.092;2024-03-08T04:25:26;11.13;;;9.87;;
27303;SDS011;14791;52.392;13.092;2024-03-08T04:27:55;10.10;;;9.20;;
27303;SDS011;14791;52.392;13.092;2024-03-08T04:30:24;10.57;;;9.53;;
27303;SDS011;14791;52.392;13.092;2024-03-08T04:32:54;10.53;;;9.60;;
27303;SDS011;14791;52.392;13.092;2024-03-08T04:35:24;10.63;;;9.43;;
27303;SDS011;14791;52.392;13.092;2024-03-08T04:37:53;12.40;;;10.23;;
27303;SDS011;14791;52.392;13.092;2024-03-08T04:40:21;10.30;;;9.30;;
27303;SDS011;14791;52.392;13.092;2024-03-08T04:42:50;10.93;;;9.43;;
27303;SDS011;14791;52.392;13.092;2024-03-08T04:45:20;11.07;;;9.47;;
27303;SDS011;14791;52.392;13.092;2024-03-08T04:47:49;11.83;;;9.97;;
27303;SDS011;14791;52.392;13.092;2024-03-08T04:50:19;10.50;;;9.50;;
27303;SDS011;14791;52.392;13.092;2024-03-08T04:52:48;12.40;;;11.17;;
27303;SDS011;14791;52.392;13.092;2024-03-08T04:55:17;10.90;;;9.80;;
27303;SDS011;14791;52.392;13.092;2024-03-08T04:57:48;12.47;;;10.70;;
27303;SDS011;14791;52.392;13.092;2024-03-08T05:00:17;11.43;;;10.33;;
27303;SDS011;14791;52.392;13.092;2024-03-08T05:02:46;12.97;;;9.97;;
27303;SDS011;14791;52.392;13.092;2024-03-08T05:05:15;12.40;;;9.50;;
27303;SDS011;14791;52.392;13.092;2024-03-08T05:07:44;14.37;;;10.90;;
27303;SDS011;14791;52.392;13.092;2024-03-08T05:10:12;15.50;;;10.47;;
27303;SDS011;14791;52.392;13.092;2024-03-08T05:12:43;13.50;;;10.67;;
27303;SDS011;14791;52.392;13.092;2024-03-08T05:15:12;13.23;;;10.30;;
27303;SDS011;14791;52.392;13.092;2024-03-08T05:17:41;12.00;;;9.57;;
27303;SDS011;14791;52.392;13.092;2024-03-08T05:20:10;14.13;;;10.37;;
27303;SDS011;14791;52.392;13.092;2024-03-08T05:22:40;12.07;;;10.57;;
27303;SDS011;14791;52.392;13.092;2024-03-08T05:25:09;12.50;;;9.73;;
27303;SDS011;14791;52.392;13.092;2024-03-08T05:27:39;13.10;;;9.87;;
27303;SDS011;14791;52.392;13.092;2024-03-08T05:30:08;12.77;;;10.40;;
27303;SDS011;14791;52.392;13.092;2024-03-08T05:32:42;14.83;;;9.87;;
27303;SDS011;14791;52.392;13.092;2024-03-08T05:35:12;12.07;;;10.83;;
27303;SDS011;14791;52.392;13.092;2024-03-08T05:37:43;11.43;;;10.07;;
27303;SDS011;14791;52.392;13.092;2024-03-08T05:40:12;14.73;;;9.80;;
27303;SDS011;14791;52.392;13.092;2024-03-08T05:42:41;12.93;;;9.70;;
27303;SDS011;14791;52.392;13.092;2024-03-08T05:45:09;11.43;;;10.13;;
27303;SDS011;14791;52.392;13.092;2024-03-08T05:47:39;13.37;;;10.80;;
27303;SDS011;14791;52.392;13.092;2024-03-08T05:50:08;12.83;;;10.10;;
27303;SDS011;14791;52.392;13.092;2024-03-08T05:52:38;15.33;;;9.93;;
27303;SDS011;14791;52.392;13.092;2024-03-08T05:55:07;13.77;;;10.87;;
27303;SDS011;14791;52.392;13.092;2024-03-08T05:57:36;11.43;;;9.40;;
27303;SDS011;14791;52.392;13.092;2024-03-08T06:00:07;10.50;;;9.50;;
27303;SDS011;14791;52.392;13.092;2024-03-08T06:02:41;11.63;;;9.17;;
27303;SDS011;14791;52.392;13.092;2024-03-08T06:05:10;13.83;;;10.67;;
27303;SDS011;14791;52.392;13.092;2024-03-08T06:07:39;11.87;;;10.57;;
27303;SDS011;14791;52.392;13.092;2024-03-08T06:10:09;15.73;;;11.87;;
27303;SDS011;14791;52.392;13.092;2024-03-08T06:12:43;11.87;;;10.67;;
27303;SDS011;14791;52.392;13.092;2024-03-08T06:15:12;14.93;;;10.50;;
27303;SDS011;14791;52.392;13.092;2024-03-08T06:17:44;13.03;;;11.20;;
27303;SDS011;14791;52.392;13.092;2024-03-08T06:20:13;12.43;;;11.00;;
27303;SDS011;14791;52.392;13.092;2024-03-08T06:22:42;11.90;;;10.60;;
27303;SDS011;14791;52.392;13.092;2024-03-08T06:25:12;12.57;;;10.57;;
27303;SDS011;14791;52.392;13.092;2024-03-08T06:27:44;12.33;;;11.07;;
27303;SDS011;14791;52.392;13.092;2024-03-08T06:30:13;14.53;;;11.90;;
27303;SDS011;14791;52.392;13.092;2024-03-08T06:32:43;12.37;;;11.17;;
27303;SDS011;14791;52.392;13.092;2024-03-08T06:35:12;14.53;;;11.63;;
27303;SDS011;14791;52.392;13.092;2024-03-08T06:37:42;12.30;;;10.63;;
27303;SDS011;14791;52.392;13.092;2024-03-08T06:40:11;14.00;;;11.83;;
27303;SDS011;14791;52.392;13.092;2024-03-08T06:42:40;13.77;;;12.20;;
27303;SDS011;14791;52.392;13.092;2024-03-08T06:45:09;17.90;;;11.60;;
27303;SDS011;14791;52.392;13.092;2024-03-08T06:47:39;15.43;;;12.17;;
27303;SDS011;14791;52.392;13.092;2024-03-08T06:50:08;15.37;;;12.07;;
27303;SDS011;14791;52.392;13.092;2024-03-08T06:52:38;16.47;;;12.80;;
27303;SDS011;14791;52.392;13.092;2024-03-08T06:55:07;17.67;;;11.90;;
27303;SDS011;14791;52.392;13.092;2024-03-08T06:57:39;14.30;;;11.73;;
27303;SDS011;14791;52.392;13.092;2024-03-08T07:00:09;14.93;;;11.57;;
27303;SDS011;14791;52.392;13.092;2024-03-08T07:02:40;13.47;;;10.73;;
27303;SDS011;14791;52.392;13.092;2024-03-08T07:05:09;12.17;;;10.90;;
27303;SDS011;14791;52.392;13.092;2024-03-08T07:07:38;14.30;;;10.90;;
27303;SDS011;14791;52.392;13.092;2024-03-08T07:10:08;16.77;;;10.47;;
27303;SDS011;14791;52.392;13.092;2024-03-08T07:12:41;13.73;;;12.17;;
27303;SDS011;14791;52.392;13.092;2024-03-08T07:15:10;12.20;;;10.90;;
27303;SDS011;14791;52.392;13.092;2024-03-08T07:17:40;12.30;;;10.60;;
27303;SDS011;14791;52.392;13.092;2024-03-08T07:20:11;12.53;;;11.00;;
27303;SDS011;14791;52.392;13.092;2024-03-08T07:22:42;11.20;;;9.97;;
27303;SDS011;14791;52.392;13.092;2024-03-08T07:25:11;12.30;;;11.10;;
27303;SDS011;14791;52.392;13.092;2024-03-08T07:27:51;13.87;;;11.53;;
27303;SDS011;14791;52.392;13.092;2024-03-08T07:30:25;16.23;;;11.17;;
27303;SDS011;14791;52.392;13.092;2024-03-08T07:33:15;12.97;;;11.30;;
27303;SDS011;14791;52.392;13.092;2024-03-08T07:35:46;13.43;;;12.00;;
27303;SDS011;14791;52.392;13.092;2024-03-08T07:38:16;13.33;;;11.57;;
27303;SDS011;14791;52.392;13.092;2024-03-08T07:40:47;13.23;;;11.83;;
27303;SDS011;14791;52.392;13.092;2024-03-08T07:43:16;12.57;;;11.00;;
27303;SDS011;14791;52.392;13.092;2024-03-08T07:45:45;13.53;;;12.17;;
27303;SDS011;14791;52.392;13.092;2024-03-08T07:48:14;13.07;;;11.73;;
27303;SDS011;14791;52.392;13.092;2024-03-08T07:50:43;15.40;;;12.23;;
27303;SDS011;14791;52.392;13.092;2024-03-08T07:53:13;14.50;;;11.87;;
27303;SDS011;14791;52.392;13.092;2024-03-08T07:55:42;13.17;;;11.80;;
27303;SDS011;14791;52.392;13.092;2024-03-08T07:58:11;14.23;;;11.77;;
27303;SDS011;14791;52.392;13.092;2024-03-08T08:00:40;13.43;;;12.03;;
27303;SDS011;14791;52.392;13.092;2024-03-08T08:03:13;11.93;;;10.93;;
27303;SDS011;14791;52.392;13.092;2024-03-08T08:05:42;11.23;;;10.27;;
27303;SDS011;14791;52.392;13.092;2024-03-08T08:08:13;12.50;;;11.20;;
27303;SDS011;14791;52.392;13.092;2024-03-08T08:10:42;12.03;;;10.33;;
27303;SDS011;14791;52.392;13.092;2024-03-08T08:13:10;9.97;;;8.97;;
27303;SDS011;14791;52.392;13.092;2024-03-08T08:15:39;16.23;;;11.70;;
27303;SDS011;14791;52.392;13.092;2024-03-08T08:18:08;12.93;;;11.73;;
27303;SDS011;14791;52.392;13.092;2024-03-08T08:20:37;13.57;;;12.20;;
27303;SDS011;14791;52.392;13.092;2024-03-08T08:23:06;13.33;;;12.03;;
27303;SDS011;14791;52.392;13.092;2024-03-08T08:25:36;9.73;;;8.43;;
27303;SDS011;14791;52.392;13.092;2024-03-08T08:28:05;12.37;;;10.77;;
27303;SDS011;14791;52.392;13.092;2024-03-08T08:30:35;11.73;;;10.50;;
27303;SDS011;14791;52.392;13.092;2024-03-08T08:33:04;13.60;;;12.30;;
27303;SDS011;14791;52.392;13.092;2024-03-08T08:35:35;12.03;;;10.80;;
27303;SDS011;14791;52.392;13.092;2024-03-08T08:38:08;11.43;;;10.33;;
27303;SDS011;14791;52.392;13.092;2024-03-08T08:40:37;15.30;;;12.00;;
27303;SDS011;14791;52.392;13.092;2024-03-08T08:43:06;12.50;;;11.20;;
27303;SDS011;14791;52.392;13.092;2024-03-08T08:45:34;10.43;;;9.40;;
27303;SDS011;14791;52.392;13.092;2024-03-08T08:48:05;10.37;;;9.40;;
27303;SDS011;14791;52.392;13.092;2024-03-08T08:50:35;14.07;;;12.20;;
27303;SDS011;14791;52.392;13.092;2024-03-08T08:53:04;14.93;;;12.57;;
27303;SDS011;14791;52.392;13.092;2024-03-08T08:55:33;12.97;;;11.77;;
27303;SDS011;14791;52.392;13.092;2024-03-08T08:58:03;13.07;;;11.73;;
27303;SDS011;14791;52.392;13.092;2024-03-08T09:00:31;13.47;;;12.13;;
27303;SDS011;14791;52.392;13.092;2024-03-08T09:03:02;12.27;;;11.17;;
27303;SDS011;14791;52.392;13.092;2024-03-08T09:05:33;12.53;;;11.40;;
27303;SDS011;14791;52.392;13.092;2024-03-08T09:08:02;13.40;;;12.30;;
27303;SDS011;14791;52.392;13.092;2024-03-08T09:10:31;12.67;;;11.57;;
27303;SDS011;14791;52.392;13.092;2024-03-08T09:13:01;12.97;;;11.57;;
27303;SDS011;14791;52.392;13.092;2024-03-08T09:15:31;11.10;;;10.30;;
27303;SDS011;14791;52.392;13.092;2024-03-08T09:18:00;11.60;;;10.43;;
27303;SDS011;14791;52.392;13.092;2024-03-08T09:20:29;12.53;;;11.13;;
27303;SDS011;14791;52.392;13.092;2024-03-08T09:22:58;12.27;;;10.37;;
27303;SDS011;14791;52.392;13.092;2024-03-08T09:25:27;11.43;;;10.33;;
27303;SDS011;14791;52.392;13.092;2024-03-08T09:27:56;12.47;;;11.30;;
27303;SDS011;14791;52.392;13.092;2024-03-08T09:30:25;12.23;;;10.57;;
27303;SDS011;14791;52.392;13.092;2024-03-08T09:32:55;11.77;;;10.30;;
27303;SDS011;14791;52.392;13.092;2024-03-08T09:35:24;11.70;;;10.70;;
27303;SDS011;14791;52.392;13.092;2024-03-08T09:37:53;12.07;;;10.70;;
27303;SDS011;14791;52.392;13.092;2024-03-08T09:40:23;12.30;;;11.13;;
27303;SDS011;14791;52.392;13.092;2024-03-08T09:42:53;11.40;;;9.90;;
27303;SDS011;14791;52.392;13.092;2024-03-08T09:45:22;11.87;;;10.60;;
27303;SDS011;14791;52.392;13.092;2024-03-08T09:47:52;10.33;;;9.20;;
27303;SDS011;14791;52.392;13.092;2024-03-08T09:50:22;14.37;;;11.43;;
27303;SDS011;14791;52.392;13.092;2024-03-08T09:52:53;10.60;;;9.37;;
27303;SDS011;14791;52.392;13.092;2024-03-08T09:55:24;13.53;;;10.47;;
27303;SDS011;14791;52.392;13.092;2024-03-08T09:57:55;11.57;;;9.57;;
27303;SDS011;14791;52.392;13.092;2024-03-08T10:00:45;10.87;;;9.70;;
27303;SDS011;14791;52.392;13.092;2024-03-08T10:03:15;10.37;;;9.30;;
27303;SDS011;14791;52.392;13.092;2024-03-08T10:05:44;10.33;;;9.40;;
27303;SDS011;14791;52.392;13.092;2024-03-08T10:08:13;9.70;;;8.77;;
27303;SDS011;14791;52.392;13.092;2024-03-08T10:10:42;9.67;;;8.70;;
27303;SDS011;14791;52.392;13.092;2024-03-08T10:13:11;10.17;;;9.30;;
27303;SDS011;14791;52.392;13.092;2024-03-08T10:15:41;9.23;;;8.33;;
27303;SDS011;14791;52.392;13.092;2024-03-08T10:18:10;10.30;;;9.23;;
27303;SDS011;14791;52.392;13.092;2024-03-08T10:20:39;10.00;;;9.03;;
27303;SDS011;14791;52.392;13.092;2024-03-08T10:23:08;9.93;;;8.33;;
27303;SDS011;14791;52.392;13.092;2024-03-08T10:25:38;9.37;;;8.40;;
27303;SDS011;14791;52.392;13.092;2024-03-08T10:28:06;11.77;;;8.80;;
27303;SDS011;14791;52.392;13.092;2024-03-08T10:30:35;10.07;;;8.70;;
27303;SDS011;14791;52.392;13.092;2024-03-08T10:33:04;11.87;;;9.03;;
27303;SDS011;14791;52.392;13.092;2024-03-08T10:35:33;12.00;;;9.53;;
27303;SDS011;14791;52.392;13.092;2024-03-08T10:38:02;12.90;;;9.30;;
27303;SDS011;14791;52.392;13.092;2024-03-08T10:40:35;11.23;;;9.53;;
27303;SDS011;14791;52.392;13.092;2024-03-08T10:43:07;10.87;;;9.97;;
27303;SDS011;14791;52.392;13.092;2024-03-08T10:45:39;8.77;;;7.93;;
27303;SDS011;14791;52.392;13.092;2024-03-08T10:48:28;10.73;;;9.70;;
27303;SDS011;14791;52.392;13.092;2024-03-08T10:51:02;11.47;;;9.93;;
27303;SDS011;14791;52.392;13.092;2024-03-08T10:53:34;9.87;;;9.07;;
27303;SDS011;14791;52.392;13.092;2024-03-08T10:56:05;10.40;;;9.33;;
27303;SDS011;14791;52.392;13.092;2024-03-08T10:58:36;8.77;;;8.17;;
27303;SDS011;14791;52.392;13.092;2024-03-08T11:01:06;10.13;;;9.03;;
27303;SDS011;14791;52.392;13.092;2024-03-08T11:06:19;10.63;;;9.43;;
27303;SDS011;14791;52.392;13.092;2024-03-08T11:08:59;9.20;;;8.27;;
27303;SDS011;14791;52.392;13.092;2024-03-08T11:11:28;8.13;;;7.47;;
27303;SDS011;14791;52.392;13.092;2024-03-08T11:13:59;8.50;;;7.70;;
27303;SDS011;14791;52.392;13.092;2024-03-08T11:19:07;9.73;;;8.67;;
27303;SDS011;14791;52.392;13.092;2024-03-08T11:21:38;7.43;;;6.93;;
27303;SDS011;14791;52.392;13.092;2024-03-08T11:24:12;8.97;;;8.10;;
27303;SDS011;14791;52.392;13.092;2024-03-08T11:26:44;9.67;;;8.67;;
27303;SDS011;14791;52.392;13.092;2024-03-08T11:34:42;6.77;;;6.20;;
27303;SDS011;14791;52.392;13.092;2024-03-08T11:37:16;11.47;;;8.10;;
27303;SDS011;14791;52.392;13.092;2024-03-08T11:39:48;8.77;;;7.87;;
27303;SDS011;14791;52.392;13.092;2024-03-08T11:42:22;8.40;;;7.67;;
27303;SDS011;14791;52.392;13.092;2024-03-08T11:44:52;9.80;;;8.57;;
27303;SDS011;14791;52.392;13.092;2024-03-08T11:47:22;9.53;;;8.40;;
27303;SDS011;14791;52.392;13.092;2024-03-08T11:49:53;8.43;;;7.63;;
27303;SDS011;14791;52.392;13.092;2024-03-08T11:52:21;8.90;;;8.03;;
27303;SDS011;14791;52.392;13.092;2024-03-08T11:54:52;11.30;;;9.10;;
27303;SDS011;14791;52.392;13.092;2024-03-08T11:57:24;9.53;;;8.53;;
27303;SDS011;14791;52.392;13.092;2024-03-08T11:59:53;9.23;;;8.23;;
27303;SDS011;14791;52.392;13.092;2024-03-08T12:02:30;8.43;;;7.70;;
27303;SDS011;14791;52.392;13.092;2024-03-08T12:04:57;9.20;;;8.27;;
27303;SDS011;14791;52.392;13.092;2024-03-08T12:07:29;8.90;;;8.20;;
27303;SDS011;14791;52.392;13.092;2024-03-08T12:12:49;9.60;;;8.33;;
27303;SDS011;14791;52.392;13.092;2024-03-08T12:15:21;8.67;;;7.83;;
27303;SDS011;14791;52.392;13.092;2024-03-08T12:17:52;8.53;;;7.67;;
27303;SDS011;14791;52.392;13.092;2024-03-08T12:20:26;8.60;;;7.80;;
27303;SDS011;14791;52.392;13.092;2024-03-08T12:22:59;10.13;;;8.07;;
27303;SDS011;14791;52.392;13.092;2024-03-08T12:25:31;10.00;;;8.03;;
27303;SDS011;14791;52.392;13.092;2024-03-08T12:28:10;10.50;;;7.83;;
27303;SDS011;14791;52.392;13.092;2024-03-08T12:30:47;11.67;;;7.53;;
27303;SDS011;14791;52.392;13.092;2024-03-08T12:33:22;9.10;;;7.80;;
27303;SDS011;14791;52.392;13.092;2024-03-08T12:35:51;10.30;;;7.57;;
27303;SDS011;14791;52.392;13.092;2024-03-08T12:38:21;7.80;;;7.07;;
27303;SDS011;14791;52.392;13.092;2024-03-08T12:41:00;8.63;;;7.13;;
27303;SDS011;14791;52.392;13.092;2024-03-08T12:43:29;8.80;;;7.07;;
27303;SDS011;14791;52.392;13.092;2024-03-08T12:45:58;10.50;;;8.03;;
27303;SDS011;14791;52.392;13.092;2024-03-08T12:48:27;9.57;;;8.47;;
27303;SDS011;14791;52.392;13.092;2024-03-08T12:50:56;10.50;;;7.77;;
27303;SDS011;14791;52.392;13.092;2024-03-08T12:53:25;8.93;;;8.03;;
27303;SDS011;14791;52.392;13.092;2024-03-08T12:55:55;8.63;;;7.47;;
27303;SDS011;14791;52.392;13.092;2024-03-08T12:58:24;7.80;;;6.97;;
27303;SDS011;14791;52.392;13.092;2024-03-08T13:00:54;10.10;;;6.97;;
27303;SDS011;14791;52.392;13.092;2024-03-08T13:03:23;8.05;;;7.12;;
27303;SDS011;14791;52.392;13.092;2024-03-08T13:05:52;9.85;;;7.85;;
27303;SDS011;14791;52.392;13.092;2024-03-08T13:08:21;8.65;;;6.97;;
27303;SDS011;14791;52.392;13.092;2024-03-08T13:10:51;11.75;;;7.87;;
27303;SDS011;14791;52.392;13.092;2024-03-08T13:13:21;9.10;;;7.70;;
27303;SDS011;14791;52.392;13.092;2024-03-08T13:15:51;7.62;;;7.00;;
27303;SDS011;14791;52.392;13.092;2024-03-08T13:18:20;7.00;;;6.53;;
27303;SDS011;14791;52.392;13.092;2024-03-08T13:20:50;7.42;;;6.83;;
27303;SDS011;14791;52.392;13.092;2024-03-08T13:23:19;7.87;;;7.08;;
27303;SDS011;14791;52.392;13.092;2024-03-08T13:25:48;7.75;;;6.97;;
27303;SDS011;14791;52.392;13.092;2024-03-08T13:28:17;7.70;;;7.00;;
27303;SDS011;14791;52.392;13.092;2024-03-08T13:30:48;8.58;;;7.25;;
27303;SDS011;14791;52.392;13.092;2024-03-08T13:33:17;8.03;;;6.78;;
27303;SDS011;14791;52.392;13.092;2024-03-08T13:35:47;8.05;;;7.35;;
27303;SDS011;14791;52.392;13.092;2024-03-08T13:38:17;7.45;;;6.75;;
27303;SDS011;14791;52.392;13.092;2024-03-08T13:40:47;7.87;;;7.28;;
27303;SDS011;14791;52.392;13.092;2024-03-08T13:43:18;7.90;;;7.30;;
27303;SDS011;14791;52.392;13.092;2024-03-08T13:45:47;7.30;;;6.80;;
27303;SDS011;14791;52.392;13.092;2024-03-08T13:48:17;8.38;;;7.72;;
27303;SDS011;14791;52.392;13.092;2024-03-08T13:50:45;7.45;;;6.85;;
27303;SDS011;14791;52.392;13.092;2024-03-08T13:53:14;8.20;;;6.80;;
27303;SDS011;14791;52.392;13.092;2024-03-08T13:55:43;6.37;;;6.05;;
27303;SDS011;14791;52.392;13.092;2024-03-08T13:58:14;8.23;;;7.53;;
27303;SDS011;14791;52.392;13.092;2024-03-08T14:00:43;7.25;;;6.95;;
27303;SDS011;14791;52.392;13.092;2024-03-08T14:03:14;7.22;;;6.72;;
27303;SDS011;14791;52.392;13.092;2024-03-08T14:05:44;8.80;;;7.78;;
27303;SDS011;14791;52.392;13.092;2024-03-08T14:08:13;7.85;;;6.65;;
27303;SDS011;14791;52.392;13.092;2024-03-08T14:10:44;7.17;;;6.58;;
27303;SDS011;14791;52.392;13.092;2024-03-08T14:13:17;6.50;;;5.90;;
27303;SDS011;14791;52.392;13.092;2024-03-08T14:15:48;7.62;;;6.92;;
27303;SDS011;14791;52.392;13.092;2024-03-08T14:18:16;6.97;;;6.37;;
27303;SDS011;14791;52.392;13.092;2024-03-08T14:20:45;8.70;;;6.70;;
27303;SDS011;14791;52.392;13.092;2024-03-08T14:23:14;7.50;;;6.80;;
27303;SDS011;14791;52.392;13.092;2024-03-08T14:25:43;6.70;;;6.15;;
27303;SDS011;14791;52.392;13.092;2024-03-08T14:28:13;7.12;;;6.35;;
27303;SDS011;14791;52.392;13.092;2024-03-08T14:30:42;9.33;;;7.37;;
27303;SDS011;14791;52.392;13.092;2024-03-08T14:33:11;6.95;;;6.45;;
27303;SDS011;14791;52.392;13.092;2024-03-08T14:35:40;7.42;;;6.72;;
27303;SDS011;14791;52.392;13.092;2024-03-08T14:38:10;6.97;;;6.37;;
27303;SDS011;14791;52.392;13.092;2024-03-08T14:40:39;6.10;;;5.80;;
27303;SDS011;14791;52.392;13.092;2024-03-08T14:43:10;6.72;;;6.17;;
27303;SDS011;14791;52.392;13.092;2024-03-08T14:45:40;7.22;;;6.53;;
27303;SDS011;14791;52.392;13.092;2024-03-08T14:48:09;5.65;;;5.25;;
27303;SDS011;14791;52.392;13.092;2024-03-08T14:50:38;6.78;;;6.28;;